createdAt,value
2023-05-06T00:01:10.817Z,18.51
2023-05-06T00:03:53.170Z,18.14
2023-05-06T00:06:20.446Z,18.43
2023-05-06T00:08:47.059Z,18.35
2023-05-06T00:11:13.924Z,18.31
2023-05-06T00:13:41.352Z,18.30
2023-05-06T00:16:13.946Z,17.97
2023-05-06T00:18:41.663Z,18.36
2023-05-06T00:21:08.649Z,18.39
2023-05-06T00:23:35.206Z,18.45
2023-05-06T00:26:10.924Z,18.42
2023-05-06T00:28:37.416Z,18.39
2023-05-06T00:31:04.000Z,18.40
2023-05-06T00:33:30.761Z,18.39
2023-05-06T00:35:57.434Z,18.41
2023-05-06T00:38:27.131Z,18.43
2023-05-06T00:40:55.930Z,18.46
2023-05-06T00:43:25.119Z,18.44
2023-05-06T00:45:52.517Z,18.44
2023-05-06T00:48:19.280Z,18.41
2023-05-06T00:50:46.136Z,18.43
2023-05-06T00:53:12.756Z,18.43
2023-05-06T00:55:42.856Z,18.03
2023-05-06T00:58:10.664Z,18.08
2023-05-06T01:00:37.703Z,18.35
2023-05-06T01:03:04.386Z,18.31
2023-05-06T01:05:33.300Z,18.24
2023-05-06T01:08:02.996Z,18.31
2023-05-06T01:10:35.715Z,18.45
2023-05-06T01:13:23.719Z,18.48
2023-05-06T01:15:58.098Z,18.43
2023-05-06T01:18:26.634Z,18.34
2023-05-06T01:20:54.024Z,18.31
2023-05-06T01:23:20.967Z,18.26
2023-05-06T01:25:49.874Z,18.20
2023-05-06T01:28:16.432Z,18.11
2023-05-06T01:31:03.863Z,17.78
2023-05-06T01:33:40.790Z,18.12
2023-05-06T01:36:17.077Z,18.06
2023-05-06T01:39:02.550Z,18.04
2023-05-06T01:41:31.663Z,18.03
2023-05-06T01:44:06.738Z,17.37
2023-05-06T01:46:41.551Z,17.45
2023-05-06T01:49:15.987Z,18.06
2023-05-06T01:51:50.923Z,18.08
2023-05-06T01:54:18.015Z,18.14
2023-05-06T01:56:46.998Z,17.68
2023-05-06T01:59:18.013Z,17.73
2023-05-06T02:01:44.791Z,18.02
2023-05-06T02:04:11.338Z,18.07
2023-05-06T02:06:37.906Z,18.14
2023-05-06T02:09:04.384Z,18.12
2023-05-06T02:11:30.993Z,18.12
2023-05-06T02:13:58.991Z,18.17
2023-05-06T02:16:29.163Z,18.16
2023-05-06T02:19:03.226Z,18.20
2023-05-06T02:21:32.302Z,17.83
2023-05-06T02:23:59.234Z,18.11
2023-05-06T02:26:27.212Z,18.11
2023-05-06T02:28:53.942Z,18.11
2023-05-06T02:31:27.461Z,18.06
2023-05-06T02:33:54.376Z,18.03
2023-05-06T02:36:22.617Z,18.01
2023-05-06T02:38:49.194Z,18.00
2023-05-06T02:41:15.818Z,17.92
2023-05-06T02:43:42.840Z,17.93
2023-05-06T02:46:09.666Z,17.99
2023-05-06T02:48:36.653Z,17.99
2023-05-06T02:51:03.310Z,18.02
2023-05-06T02:53:29.837Z,18.07
2023-05-06T02:56:04.517Z,17.67
2023-05-06T02:58:32.594Z,17.93
2023-05-06T03:00:59.217Z,17.89
2023-05-06T03:03:26.401Z,17.85
2023-05-06T03:05:53.020Z,17.80
2023-05-06T03:08:22.127Z,17.85
2023-05-06T03:10:52.469Z,17.81
2023-05-06T03:13:19.137Z,17.83
2023-05-06T03:15:51.165Z,17.80
2023-05-06T03:18:20.397Z,17.46
2023-05-06T03:20:58.956Z,17.80
2023-05-06T03:23:39.881Z,17.86
2023-05-06T03:26:15.937Z,17.89
2023-05-06T03:28:43.130Z,17.90
2023-05-06T03:31:19.026Z,17.93
2023-05-06T03:33:48.128Z,18.03
2023-05-06T03:36:14.877Z,18.02
2023-05-06T03:38:41.505Z,18.07
2023-05-06T03:41:11.516Z,17.75
2023-05-06T03:43:38.201Z,18.09
2023-05-06T03:46:04.716Z,18.02
2023-05-06T03:48:31.452Z,17.99
2023-05-06T03:51:07.750Z,17.40
2023-05-06T03:53:34.997Z,17.87
2023-05-06T03:56:08.748Z,17.49
2023-05-06T03:58:47.036Z,17.58
2023-05-06T04:01:27.608Z,17.75
2023-05-06T04:04:12.701Z,17.68
2023-05-06T04:06:51.035Z,17.62
2023-05-06T04:09:18.754Z,17.55
2023-05-06T04:11:47.824Z,17.46
2023-05-06T04:14:14.732Z,17.40
2023-05-06T04:16:41.462Z,17.43
2023-05-06T04:19:09.997Z,17.42
2023-05-06T04:21:37.459Z,17.04
2023-05-06T04:24:04.069Z,17.30
2023-05-06T04:26:38.681Z,16.92
2023-05-06T04:29:05.847Z,17.27
2023-05-06T04:31:33.156Z,17.30
2023-05-06T04:34:00.302Z,17.33
2023-05-06T04:36:27.014Z,17.39
2023-05-06T04:38:53.544Z,17.42
2023-05-06T04:41:20.755Z,17.47
2023-05-06T04:43:47.223Z,17.48
2023-05-06T04:46:15.132Z,17.23
2023-05-06T04:48:41.912Z,17.65
2023-05-06T04:51:09.496Z,17.70
2023-05-06T04:53:38.373Z,17.81
2023-05-06T04:56:05.544Z,17.87
2023-05-06T04:58:32.190Z,17.93
2023-05-06T05:00:59.412Z,18.01
2023-05-06T05:03:27.095Z,17.75
2023-05-06T05:05:53.787Z,18.12
2023-05-06T05:08:20.312Z,18.17
2023-05-06T05:10:46.968Z,18.20
2023-05-06T05:13:14.127Z,18.24
2023-05-06T05:15:40.888Z,18.25
2023-05-06T05:18:07.562Z,18.26
2023-05-06T05:20:34.194Z,18.30
2023-05-06T05:23:09.873Z,18.35
2023-05-06T05:25:36.449Z,18.36
2023-05-06T05:28:08.802Z,18.02
2023-05-06T05:30:35.341Z,18.40
2023-05-06T05:33:04.578Z,18.44
2023-05-06T05:35:31.772Z,18.46
2023-05-06T05:38:01.407Z,18.47
2023-05-06T05:40:28.246Z,18.50
2023-05-06T05:42:55.543Z,18.54
2023-05-06T05:45:25.306Z,18.29
2023-05-06T05:47:54.511Z,18.57
2023-05-06T05:50:21.557Z,18.66
2023-05-06T05:52:52.502Z,18.44
2023-05-06T05:55:21.507Z,18.77
2023-05-06T05:57:48.167Z,18.82
2023-05-06T06:00:17.717Z,18.90
2023-05-06T06:02:46.320Z,19.00
2023-05-06T06:05:21.901Z,19.06
2023-05-06T06:07:49.051Z,19.15
2023-05-06T06:10:19.564Z,18.96
2023-05-06T06:12:47.743Z,19.02
2023-05-06T06:15:14.775Z,19.42
2023-05-06T06:17:41.967Z,19.49
2023-05-06T06:20:09.274Z,19.52
2023-05-06T06:22:37.346Z,19.25
2023-05-06T06:25:04.011Z,19.60
2023-05-06T06:27:36.984Z,19.32
2023-05-06T06:30:06.151Z,19.35
2023-05-06T06:32:39.483Z,19.73
2023-05-06T06:35:10.514Z,19.74
2023-05-06T06:37:38.452Z,19.77
2023-05-06T06:40:05.373Z,19.82
2023-05-06T06:42:32.818Z,19.84
2023-05-06T06:44:59.607Z,19.86
2023-05-06T06:47:27.662Z,19.90
2023-05-06T06:49:54.260Z,19.91
2023-05-06T06:52:29.579Z,19.88
2023-05-06T06:54:56.165Z,19.92
2023-05-06T06:57:27.995Z,19.64
2023-05-06T06:59:55.807Z,19.93
2023-05-06T07:02:22.474Z,20.00
2023-05-06T07:04:50.360Z,20.02
2023-05-06T07:07:16.927Z,20.10
2023-05-06T07:09:48.239Z,19.93
2023-05-06T07:12:42.961Z,20.20
2023-05-06T07:15:10.969Z,20.24
2023-05-06T07:17:37.868Z,20.24
2023-05-06T07:20:04.719Z,20.27
2023-05-06T07:22:31.314Z,20.23
2023-05-06T07:25:01.866Z,20.29
2023-05-06T07:27:30.512Z,20.26
2023-05-06T07:29:57.149Z,20.31
2023-05-06T07:32:23.729Z,20.26
2023-05-06T07:34:56.276Z,20.18
2023-05-06T07:37:24.814Z,20.30
2023-05-06T07:39:53.852Z,20.34
2023-05-06T07:42:21.295Z,20.37
2023-05-06T07:44:49.114Z,20.48
2023-05-06T07:47:32.020Z,20.04
2023-05-06T07:50:01.324Z,20.08
2023-05-06T07:52:29.622Z,20.32
2023-05-06T07:54:59.677Z,19.88
2023-05-06T07:57:27.505Z,20.50
2023-05-06T07:59:56.821Z,20.63
2023-05-06T08:02:24.316Z,20.61
2023-05-06T08:04:53.887Z,20.65
2023-05-06T08:07:24.485Z,20.46
2023-05-06T08:09:51.331Z,20.85
2023-05-06T08:12:24.869Z,20.87
2023-05-06T08:14:52.801Z,20.79
2023-05-06T08:17:19.499Z,20.74
2023-05-06T08:19:46.130Z,20.77
2023-05-06T08:22:12.857Z,20.70
2023-05-06T08:24:39.492Z,20.68
2023-05-06T08:27:08.498Z,20.89
2023-05-06T08:29:35.677Z,20.69
2023-05-06T08:32:02.321Z,21.09
2023-05-06T08:34:35.314Z,21.20
2023-05-06T08:37:02.228Z,21.27
2023-05-06T08:39:29.204Z,21.24
2023-05-06T08:41:56.594Z,21.21
2023-05-06T08:44:33.987Z,21.13
2023-05-06T08:47:02.414Z,21.10
2023-05-06T08:49:29.164Z,21.06
2023-05-06T08:52:05.184Z,20.92
2023-05-06T08:54:40.184Z,21.31
2023-05-06T08:57:12.456Z,21.34
2023-05-06T08:59:40.170Z,21.51
2023-05-06T09:02:11.660Z,21.11
2023-05-06T09:04:38.782Z,21.72
2023-05-06T09:07:05.401Z,21.39
2023-05-06T09:09:32.037Z,21.37
2023-05-06T09:12:01.877Z,21.58
2023-05-06T09:14:28.610Z,21.61
2023-05-06T09:16:55.713Z,21.60
2023-05-06T09:19:23.327Z,21.51
2023-05-06T09:21:50.521Z,21.50
2023-05-06T09:24:17.564Z,21.75
2023-05-06T09:26:45.672Z,21.78
2023-05-06T09:29:12.629Z,21.95
2023-05-06T09:31:44.102Z,21.73
2023-05-06T09:34:11.322Z,22.14
2023-05-06T09:36:41.795Z,22.49
2023-05-06T09:39:10.404Z,22.56
2023-05-06T09:41:37.705Z,22.75
2023-05-06T09:44:04.628Z,22.58
2023-05-06T09:46:31.499Z,22.37
2023-05-06T09:48:58.767Z,22.20
2023-05-06T09:51:27.045Z,22.07
2023-05-06T09:53:54.444Z,22.08
2023-05-06T09:56:21.823Z,22.17
2023-05-06T09:58:48.928Z,22.40
2023-05-06T10:01:25.158Z,22.95
2023-05-06T10:04:01.563Z,22.63
2023-05-06T10:06:28.458Z,22.68
2023-05-06T10:08:56.890Z,22.56
2023-05-06T10:11:23.511Z,22.73
2023-05-06T10:13:50.811Z,22.75
2023-05-06T10:16:18.682Z,22.93
2023-05-06T10:18:46.086Z,22.70
2023-05-06T10:21:17.389Z,22.88
2023-05-06T10:23:44.965Z,23.01
2023-05-06T10:26:12.394Z,22.93
2023-05-06T10:28:44.254Z,23.17
2023-05-06T10:31:12.318Z,23.35
2023-05-06T10:33:45.107Z,23.03
2023-05-06T10:36:11.654Z,23.27
2023-05-06T10:38:41.939Z,23.38
2023-05-06T10:41:09.124Z,23.47
2023-05-06T10:43:40.029Z,23.43
2023-05-06T10:46:09.478Z,23.56
2023-05-06T10:49:12.058Z,23.35
2023-05-06T10:51:40.169Z,23.16
2023-05-06T10:54:10.961Z,23.36
2023-05-06T10:56:38.903Z,23.34
2023-05-06T10:59:12.110Z,23.16
2023-05-06T11:01:51.531Z,23.24
2023-05-06T11:04:28.463Z,23.14
2023-05-06T11:07:07.709Z,23.53
2023-05-06T11:10:08.337Z,23.56
2023-05-06T11:12:57.715Z,23.37
2023-05-06T11:15:30.210Z,23.72
2023-05-06T11:17:57.253Z,23.99
2023-05-06T11:20:27.364Z,23.91
2023-05-06T11:22:54.335Z,23.90
2023-05-06T11:25:39.759Z,23.39
2023-05-06T11:28:10.618Z,23.87
2023-05-06T11:30:41.302Z,23.95
2023-05-06T11:33:08.571Z,24.09
2023-05-06T11:35:44.773Z,24.02
2023-05-06T11:38:18.044Z,24.17
2023-05-06T11:40:46.940Z,24.30
2023-05-06T11:43:18.509Z,24.27
2023-05-06T11:45:54.581Z,24.34
2023-05-06T11:48:29.077Z,24.60
2023-05-06T11:50:59.326Z,24.57
2023-05-06T11:53:26.146Z,24.63
2023-05-06T11:55:53.731Z,24.94
2023-05-06T11:58:30.726Z,25.13
2023-05-06T12:01:01.502Z,25.09
2023-05-06T12:03:29.363Z,25.03
2023-05-06T12:05:57.633Z,25.14
2023-05-06T12:08:28.310Z,25.04
2023-05-06T12:10:56.101Z,24.92
2023-05-06T12:13:33.686Z,25.23
2023-05-06T12:16:05.269Z,25.65
2023-05-06T12:18:33.477Z,25.87
2023-05-06T12:21:05.253Z,25.93
2023-05-06T12:23:32.313Z,25.97
2023-05-06T12:26:04.341Z,26.23
2023-05-06T12:28:31.605Z,26.51
2023-05-06T12:30:58.418Z,26.17
2023-05-06T12:33:25.596Z,25.58
2023-05-06T12:35:54.981Z,25.86
2023-05-06T12:38:21.900Z,25.91
2023-05-06T12:41:05.048Z,25.73
2023-05-06T12:43:40.213Z,26.04
2023-05-06T12:46:10.185Z,26.38
2023-05-06T12:48:37.090Z,26.85
2023-05-06T12:51:19.886Z,27.03
2023-05-06T12:53:47.031Z,27.09
2023-05-06T12:56:18.424Z,27.39
2023-05-06T12:58:59.786Z,27.62
2023-05-06T13:01:27.749Z,27.56
2023-05-06T13:03:58.907Z,27.53
2023-05-06T13:06:27.914Z,27.01
2023-05-06T13:08:55.043Z,26.77
2023-05-06T13:11:22.343Z,26.93
2023-05-06T13:13:50.240Z,27.44
2023-05-06T13:16:19.113Z,27.36
2023-05-06T13:18:47.235Z,27.16
2023-05-06T13:21:14.382Z,27.37
2023-05-06T13:23:49.267Z,27.07
2023-05-06T13:26:16.348Z,26.99
2023-05-06T13:28:45.914Z,26.59
2023-05-06T13:31:13.968Z,27.01
2023-05-06T13:33:40.752Z,26.75
2023-05-06T13:36:07.493Z,26.57
2023-05-06T13:38:34.118Z,26.10
2023-05-06T13:41:09.696Z,25.80
2023-05-06T13:43:42.876Z,25.63
2023-05-06T13:46:10.041Z,25.45
2023-05-06T13:48:36.989Z,25.12
2023-05-06T13:51:03.669Z,24.73
2023-05-06T13:53:38.854Z,24.58
2023-05-06T13:56:08.926Z,24.65
2023-05-06T13:58:41.414Z,24.04
2023-05-06T14:01:10.649Z,24.50
2023-05-06T14:03:37.316Z,24.53
2023-05-06T14:06:04.350Z,24.45
2023-05-06T14:08:35.843Z,24.34
2023-05-06T14:11:03.546Z,23.96
2023-05-06T14:13:36.198Z,24.29
2023-05-06T14:16:04.046Z,24.47
2023-05-06T14:18:31.001Z,24.43
2023-05-06T14:20:58.713Z,23.91
2023-05-06T14:23:30.152Z,23.53
2023-05-06T14:25:56.890Z,23.85
2023-05-06T14:28:26.789Z,23.83
2023-05-06T14:30:56.993Z,23.79
2023-05-06T14:33:24.579Z,24.03
2023-05-06T14:35:52.866Z,24.36
2023-05-06T14:38:19.973Z,23.96
2023-05-06T14:40:46.524Z,23.90
2023-05-06T14:43:13.967Z,23.80
2023-05-06T14:45:40.618Z,23.59
2023-05-06T14:48:07.762Z,23.22
2023-05-06T14:50:34.721Z,23.48
2023-05-06T14:53:10.443Z,23.51
2023-05-06T14:55:39.684Z,23.53
2023-05-06T14:58:32.074Z,23.52
2023-05-06T15:01:06.110Z,23.78
2023-05-06T15:03:33.188Z,23.47
2023-05-06T15:06:00.083Z,23.46
2023-05-06T15:08:27.207Z,23.75
2023-05-06T15:10:55.043Z,23.65
2023-05-06T15:13:21.766Z,23.61
2023-05-06T15:15:48.583Z,23.63
2023-05-06T15:18:15.358Z,23.60
2023-05-06T15:20:44.421Z,23.37
2023-05-06T15:23:11.400Z,23.37
2023-05-06T15:25:39.133Z,23.39
2023-05-06T15:28:06.800Z,23.46
2023-05-06T15:30:33.437Z,23.48
2023-05-06T15:33:01.911Z,23.53
2023-05-06T15:35:28.926Z,23.65
2023-05-06T15:37:59.285Z,23.38
2023-05-06T15:40:27.154Z,23.41
2023-05-06T15:42:56.911Z,23.51
2023-05-06T15:45:23.975Z,23.53
2023-05-06T15:47:50.588Z,23.42
2023-05-06T15:50:32.756Z,23.45
2023-05-06T15:53:02.854Z,23.30
2023-05-06T15:55:30.032Z,23.44
2023-05-06T15:57:59.156Z,23.45
2023-05-06T16:00:29.144Z,23.33
2023-05-06T16:02:56.433Z,23.31
2023-05-06T16:05:26.697Z,23.31
2023-05-06T16:07:55.855Z,23.43
2023-05-06T16:10:27.793Z,23.19
2023-05-06T16:12:55.697Z,23.25
2023-05-06T16:15:22.626Z,23.27
2023-05-06T16:17:49.554Z,22.98
2023-05-06T16:20:16.503Z,23.05
2023-05-06T16:22:49.272Z,22.92
2023-05-06T16:25:16.960Z,23.06
2023-05-06T16:28:00.047Z,22.97
2023-05-06T16:30:30.490Z,22.99
2023-05-06T16:32:57.418Z,23.09
2023-05-06T16:35:24.150Z,22.96
2023-05-06T16:37:50.842Z,23.03
2023-05-06T16:40:23.196Z,23.14
2023-05-06T16:42:50.239Z,23.17
2023-05-06T16:45:27.975Z,22.71
2023-05-06T16:47:54.858Z,22.91
2023-05-06T16:50:25.971Z,22.52
2023-05-06T16:52:54.106Z,22.91
2023-05-06T16:55:22.001Z,23.12
2023-05-06T16:57:51.845Z,23.38
2023-05-06T17:02:57.788Z,22.98
2023-05-06T17:05:28.055Z,23.14
2023-05-06T17:07:54.612Z,23.22
2023-05-06T17:10:22.227Z,23.14
2023-05-06T17:12:48.909Z,23.14
2023-05-06T17:15:21.248Z,22.83
2023-05-06T17:17:47.825Z,22.89
2023-05-06T17:20:14.661Z,22.92
2023-05-06T17:22:41.397Z,22.72
2023-05-06T17:25:08.150Z,22.78
2023-05-06T17:27:34.990Z,22.64
2023-05-06T17:30:04.820Z,22.56
2023-05-06T17:32:34.707Z,22.60
2023-05-06T17:35:07.227Z,22.51
2023-05-06T17:37:47.085Z,22.30
2023-05-06T17:40:15.284Z,22.28
2023-05-06T17:42:44.098Z,22.21
2023-05-06T17:45:11.005Z,22.21
2023-05-06T17:47:48.767Z,22.19
2023-05-06T17:50:15.842Z,22.27
2023-05-06T17:52:42.361Z,22.29
2023-05-06T17:55:16.387Z,22.30
2023-05-06T17:57:44.424Z,22.20
2023-05-06T18:00:25.254Z,22.15
2023-05-06T18:03:04.934Z,22.22
2023-05-06T18:05:34.730Z,22.13
2023-05-06T18:08:09.020Z,22.08
2023-05-06T18:10:41.104Z,22.19
2023-05-06T18:13:08.600Z,22.20
2023-05-06T18:15:37.318Z,21.99
2023-05-06T18:18:04.965Z,22.06
2023-05-06T18:20:37.907Z,21.95
2023-05-06T18:23:05.043Z,21.88
2023-05-06T18:25:31.721Z,21.79
2023-05-06T18:27:58.457Z,21.88
2023-05-06T18:30:25.365Z,21.84
2023-05-06T18:32:53.849Z,21.67
2023-05-06T18:35:22.216Z,21.83
2023-05-06T18:37:48.805Z,21.71
2023-05-06T18:40:24.819Z,21.69
2023-05-06T18:42:53.249Z,21.67
2023-05-06T18:45:20.179Z,21.67
2023-05-06T18:47:48.189Z,21.79
2023-05-06T18:50:16.329Z,21.69
2023-05-06T18:52:47.118Z,21.42
2023-05-06T18:55:13.978Z,21.70
2023-05-06T18:57:40.878Z,21.69
2023-05-06T19:00:08.029Z,21.65
2023-05-06T19:02:34.847Z,21.54
2023-05-06T19:05:01.490Z,21.44
2023-05-06T19:07:28.128Z,21.53
2023-05-06T19:09:55.165Z,21.46
2023-05-06T19:12:23.966Z,21.43
2023-05-06T19:14:51.487Z,21.45
2023-05-06T19:17:22.817Z,21.44
2023-05-06T19:19:51.530Z,21.44
2023-05-06T19:22:18.763Z,21.39
2023-05-06T19:24:45.654Z,21.40
2023-05-06T19:27:12.365Z,21.39
2023-05-06T19:29:39.515Z,21.42
2023-05-06T19:32:06.648Z,21.45
2023-05-06T19:34:33.176Z,21.36
2023-05-06T19:37:00.179Z,21.32
2023-05-06T19:39:27.909Z,21.35
2023-05-06T19:41:55.908Z,21.71
2023-05-06T19:44:28.591Z,21.46
2023-05-06T19:47:15.477Z,21.45
2023-05-06T19:49:43.465Z,21.32
2023-05-06T19:52:10.129Z,21.36
2023-05-06T19:54:37.803Z,21.31
2023-05-06T19:57:07.489Z,21.28
2023-05-06T19:59:34.367Z,21.28
2023-05-06T20:02:01.998Z,21.60
2023-05-06T20:04:31.961Z,21.30
2023-05-06T20:06:58.742Z,21.19
2023-05-06T20:09:27.094Z,20.83
2023-05-06T20:11:54.021Z,21.07
2023-05-06T20:14:21.088Z,21.08
2023-05-06T20:16:50.609Z,20.82
2023-05-06T20:19:19.976Z,21.12
2023-05-06T20:21:46.942Z,21.15
2023-05-06T20:24:14.353Z,21.18
2023-05-06T20:26:42.348Z,21.11
2023-05-06T20:29:09.057Z,21.22
2023-05-06T20:31:38.585Z,21.19
2023-05-06T20:34:06.803Z,21.09
2023-05-06T20:36:42.360Z,20.99
2023-05-06T20:39:12.114Z,20.98
2023-05-06T20:41:41.460Z,21.00
2023-05-06T20:44:08.972Z,20.95
2023-05-06T20:46:39.042Z,20.96
2023-05-06T20:49:19.900Z,20.93
2023-05-06T20:58:19.424Z,20.96
2023-05-06T21:00:53.703Z,20.55
2023-05-06T21:03:20.665Z,20.87
2023-05-06T21:05:58.577Z,20.84
2023-05-06T21:08:29.422Z,20.82
2023-05-06T21:10:56.296Z,20.84
2023-05-06T21:13:26.201Z,20.85
2023-05-06T21:15:53.957Z,20.84
2023-05-06T21:18:21.102Z,20.91
2023-05-06T21:20:53.082Z,20.91
2023-05-06T21:23:20.255Z,20.91
2023-05-06T21:25:51.437Z,20.92
2023-05-06T21:28:18.445Z,20.95
2023-05-06T21:30:45.323Z,20.87
2023-05-06T21:33:12.323Z,20.91
2023-05-06T21:35:50.176Z,20.80
2023-05-06T21:38:19.313Z,20.82
2023-05-06T21:40:48.218Z,20.79
2023-05-06T21:43:19.314Z,20.69
2023-05-06T21:46:13.954Z,20.68
2023-05-06T21:48:53.308Z,20.61
2023-05-06T21:51:20.325Z,20.62
2023-05-06T21:54:00.506Z,20.64
2023-05-06T21:56:47.112Z,20.66
2023-05-06T21:59:19.642Z,20.73
2023-05-06T22:01:46.666Z,20.63
2023-05-06T22:04:13.698Z,20.63
2023-05-06T22:06:46.576Z,20.30
2023-05-06T22:09:17.208Z,20.41
2023-05-06T22:12:07.070Z,20.73
2023-05-06T22:14:52.433Z,20.28
2023-05-06T22:17:19.464Z,20.34
2023-05-06T22:19:47.154Z,20.27
2023-05-06T22:22:40.782Z,20.47
2023-05-06T22:25:10.704Z,20.04
2023-05-06T22:27:44.047Z,20.07
2023-05-06T22:30:14.968Z,20.42
2023-05-06T22:32:43.388Z,20.59
2023-05-06T22:35:15.405Z,20.57
2023-05-06T22:37:42.045Z,20.52
2023-05-06T22:40:09.705Z,20.41
2023-05-06T22:42:36.674Z,20.33
2023-05-06T22:45:03.410Z,20.29
2023-05-06T22:47:33.449Z,20.22
2023-05-06T22:50:34.886Z,20.24
2023-05-06T22:53:10.285Z,20.21
2023-05-06T22:55:50.565Z,20.18
2023-05-06T22:58:34.867Z,20.14
2023-05-06T23:01:10.122Z,20.15
2023-05-06T23:03:37.066Z,20.28
2023-05-06T23:06:09.376Z,20.24
2023-05-06T23:08:35.997Z,20.31
2023-05-06T23:11:02.597Z,20.28
2023-05-06T23:13:31.357Z,20.23
2023-05-06T23:15:57.920Z,20.26
2023-05-06T23:18:24.465Z,20.24
2023-05-06T23:20:53.497Z,20.20
2023-05-06T23:23:19.966Z,20.13
2023-05-06T23:25:46.630Z,20.09
2023-05-06T23:28:13.318Z,20.01
2023-05-06T23:30:40.254Z,19.95
2023-05-06T23:33:07.850Z,19.91
2023-05-06T23:35:34.409Z,19.97
2023-05-06T23:38:01.024Z,19.85
2023-05-06T23:40:27.661Z,19.80
2023-05-06T23:42:56.378Z,19.68
2023-05-06T23:45:25.807Z,19.62
2023-05-06T23:47:54.525Z,19.62
2023-05-06T23:50:21.132Z,19.64
2023-05-06T23:52:47.645Z,19.60
2023-05-06T23:55:20.847Z,19.12
2023-05-06T23:57:53.052Z,19.60
